createdAt,value
2023-03-03T00:00:41.279Z,88.07
2023-03-03T00:01:37.910Z,88.47
2023-03-03T00:02:34.685Z,89.01
2023-03-03T00:03:31.584Z,89.19
2023-03-03T00:04:28.362Z,88.42
2023-03-03T00:05:25.073Z,88.21
2023-03-03T00:06:21.718Z,88.36
2023-03-03T00:07:23.181Z,88.77
2023-03-03T00:08:21.402Z,87.89
2023-03-03T00:09:18.163Z,87.78
2023-03-03T00:10:14.898Z,88.34
2023-03-03T00:11:11.936Z,88.93
2023-03-03T00:12:29.054Z,89.07
2023-03-03T00:13:27.228Z,88.88
2023-03-03T00:14:30.801Z,88.51
2023-03-03T00:15:28.706Z,88.09
2023-03-03T00:16:38.899Z,88.10
2023-03-03T00:17:35.554Z,88.63
2023-03-03T00:18:37.392Z,88.48
2023-03-03T00:19:38.875Z,88.75
2023-03-03T00:20:39.162Z,88.76
2023-03-03T00:21:45.199Z,88.87
2023-03-03T00:22:41.953Z,89.64
2023-03-03T00:23:40.751Z,90.19
2023-03-03T00:24:37.978Z,90.05
2023-03-03T00:25:34.861Z,89.52
2023-03-03T00:26:36.673Z,89.52
2023-03-03T00:27:38.420Z,89.60
2023-03-03T00:28:54.735Z,90.12
2023-03-03T00:29:55.721Z,90.53
2023-03-03T00:30:54.007Z,90.50
2023-03-03T00:31:50.695Z,90.16
2023-03-03T00:32:47.399Z,89.61
2023-03-03T00:33:50.687Z,89.18
2023-03-03T00:34:48.371Z,89.49
2023-03-03T00:35:45.056Z,89.85
2023-03-03T00:36:42.306Z,89.80
2023-03-03T00:37:41.273Z,89.37
2023-03-03T00:38:37.886Z,90.04
2023-03-03T00:39:39.205Z,90.20
2023-03-03T00:40:38.386Z,90.54
2023-03-03T00:41:37.542Z,90.75
2023-03-03T00:42:36.280Z,90.16
2023-03-03T00:43:36.552Z,90.42
2023-03-03T00:45:00.710Z,90.25
2023-03-03T00:45:58.642Z,90.22
2023-03-03T00:46:56.695Z,90.62
2023-03-03T00:47:53.480Z,91.25
2023-03-03T00:48:51.526Z,91.34
2023-03-03T00:49:48.085Z,90.65
2023-03-03T00:50:44.750Z,89.88
2023-03-03T00:51:44.151Z,89.75
2023-03-03T00:52:46.369Z,89.11
2023-03-03T00:53:42.933Z,88.73
2023-03-03T00:54:39.491Z,88.53
2023-03-03T00:55:36.282Z,89.02
2023-03-03T00:56:32.994Z,89.70
2023-03-03T00:57:29.977Z,90.06
2023-03-03T00:58:27.597Z,89.85
2023-03-03T00:59:24.363Z,90.46
2023-03-03T01:00:21.123Z,90.90
2023-03-03T01:01:18.285Z,91.10
2023-03-03T01:02:14.959Z,91.32
2023-03-03T01:03:20.749Z,91.48
2023-03-03T01:04:17.399Z,91.83
2023-03-03T01:05:15.942Z,91.95
2023-03-03T01:06:14.314Z,91.89
2023-03-03T01:07:10.963Z,91.78
2023-03-03T01:08:07.850Z,91.86
2023-03-03T01:09:04.507Z,91.48
2023-03-03T01:10:01.214Z,91.10
2023-03-03T01:11:04.042Z,91.22
2023-03-03T01:12:00.889Z,91.33
2023-03-03T01:12:58.317Z,90.81
2023-03-03T01:13:55.155Z,91.52
2023-03-03T01:14:53.146Z,91.55
2023-03-03T01:15:50.775Z,92.08
2023-03-03T01:16:47.544Z,91.59
2023-03-03T01:17:44.244Z,90.88
2023-03-03T01:18:42.090Z,91.38
2023-03-03T01:19:38.709Z,91.13
2023-03-03T01:20:35.339Z,90.22
2023-03-03T01:21:32.019Z,90.09
2023-03-03T01:22:28.700Z,90.91
2023-03-03T01:23:25.303Z,91.04
2023-03-03T01:24:22.263Z,91.44
2023-03-03T01:25:18.837Z,91.97
2023-03-03T01:26:15.461Z,91.96
2023-03-03T01:27:12.060Z,92.35
2023-03-03T01:28:08.704Z,91.86
2023-03-03T01:29:05.467Z,91.30
2023-03-03T01:30:03.059Z,91.42
2023-03-03T01:31:04.222Z,91.76
2023-03-03T01:32:00.900Z,92.35
2023-03-03T01:32:57.712Z,92.46
2023-03-03T01:33:54.380Z,92.66
2023-03-03T01:34:51.332Z,92.48
2023-03-03T01:35:48.643Z,92.62
2023-03-03T01:36:45.283Z,92.52
2023-03-03T01:37:42.011Z,92.07
2023-03-03T01:38:39.387Z,91.65
2023-03-03T01:39:36.100Z,91.75
2023-03-03T01:40:32.987Z,91.67
2023-03-03T01:41:33.661Z,92.04
2023-03-03T01:42:30.790Z,92.39
2023-03-03T01:43:29.607Z,92.77
2023-03-03T01:44:26.577Z,92.75
2023-03-03T01:45:26.777Z,92.82
2023-03-03T01:46:32.467Z,93.03
2023-03-03T01:47:34.095Z,92.95
2023-03-03T01:48:44.772Z,92.28
2023-03-03T01:49:41.332Z,91.47
2023-03-03T01:51:02.459Z,90.62
2023-03-03T01:52:02.712Z,90.50
2023-03-03T01:53:03.448Z,91.11
2023-03-03T01:54:03.420Z,90.75
2023-03-03T01:55:04.792Z,90.20
2023-03-03T01:56:03.095Z,90.00
2023-03-03T01:57:04.016Z,90.58
2023-03-03T01:58:13.723Z,90.41
2023-03-03T01:59:17.480Z,89.74
2023-03-03T02:00:15.077Z,89.50
2023-03-03T02:01:17.185Z,88.35
2023-03-03T02:02:13.864Z,88.34
2023-03-03T02:03:11.053Z,88.65
2023-03-03T02:04:08.943Z,88.31
2023-03-03T02:05:05.962Z,88.29
2023-03-03T02:06:07.778Z,88.41
2023-03-03T02:07:10.835Z,88.98
2023-03-03T02:08:08.849Z,89.67
2023-03-03T02:09:12.788Z,90.21
2023-03-03T02:10:13.623Z,90.31
2023-03-03T02:11:11.158Z,90.46
2023-03-03T02:12:11.379Z,90.46
2023-03-03T02:13:08.253Z,90.97
2023-03-03T02:14:05.310Z,90.19
2023-03-03T02:15:02.191Z,90.41
2023-03-03T02:15:59.216Z,90.83
2023-03-03T02:16:56.164Z,90.21
2023-03-03T02:17:55.949Z,90.63
2023-03-03T02:18:52.702Z,90.57
2023-03-03T02:20:06.438Z,90.78
2023-03-03T02:21:21.574Z,90.84
2023-03-03T02:22:24.038Z,90.96
2023-03-03T02:23:33.934Z,90.89
2023-03-03T02:24:47.322Z,90.93
2023-03-03T02:25:58.451Z,90.30
2023-03-03T02:26:56.106Z,90.09
2023-03-03T02:27:53.085Z,90.31
2023-03-03T02:28:50.507Z,90.47
2023-03-03T02:29:47.121Z,90.39
2023-03-03T02:30:44.207Z,90.90
2023-03-03T02:31:40.892Z,90.77
2023-03-03T02:32:37.734Z,90.58
2023-03-03T02:33:34.416Z,90.65
2023-03-03T02:34:30.974Z,90.74
2023-03-03T02:35:31.612Z,90.64
2023-03-03T02:36:33.449Z,90.72
2023-03-03T02:37:30.350Z,90.68
2023-03-03T02:38:34.058Z,90.63
2023-03-03T02:39:30.645Z,90.37
2023-03-03T02:40:31.618Z,90.71
2023-03-03T02:41:49.444Z,91.19
2023-03-03T02:42:48.419Z,91.32
2023-03-03T02:44:06.379Z,91.02
2023-03-03T02:45:02.952Z,90.18
2023-03-03T02:45:59.607Z,90.34
2023-03-03T02:46:57.846Z,90.62
2023-03-03T02:47:54.521Z,90.77
2023-03-03T02:48:51.144Z,90.76
2023-03-03T02:49:47.857Z,91.00
2023-03-03T02:50:44.547Z,91.04
2023-03-03T02:51:41.636Z,90.48
2023-03-03T02:52:38.223Z,89.97
2023-03-03T02:53:34.807Z,89.98
2023-03-03T02:54:32.067Z,90.02
2023-03-03T02:55:28.634Z,90.20
2023-03-03T02:56:25.523Z,90.65
2023-03-03T02:57:22.114Z,90.76
2023-03-03T02:58:19.051Z,90.86
2023-03-03T02:59:16.458Z,90.72
2023-03-03T03:00:13.290Z,90.75
2023-03-03T03:01:09.991Z,90.72
2023-03-03T03:02:07.705Z,90.76
2023-03-03T03:03:04.427Z,90.94
2023-03-03T03:04:01.054Z,91.10
2023-03-03T03:04:57.729Z,91.45
2023-03-03T03:05:54.335Z,91.30
2023-03-03T03:06:51.840Z,90.84
2023-03-03T03:07:48.449Z,89.97
2023-03-03T03:08:45.236Z,90.03
2023-03-03T03:09:42.251Z,90.26
2023-03-03T03:10:38.831Z,90.92
2023-03-03T03:11:35.847Z,91.02
2023-03-03T03:12:32.814Z,90.89
2023-03-03T03:13:31.137Z,91.33
2023-03-03T03:14:28.409Z,91.47
2023-03-03T03:15:25.056Z,91.42
2023-03-03T03:16:21.762Z,91.67
2023-03-03T03:17:18.579Z,91.61
2023-03-03T03:18:15.993Z,91.86
2023-03-03T03:19:12.708Z,91.65
2023-03-03T03:20:09.896Z,91.48
2023-03-03T03:21:08.678Z,91.12
2023-03-03T03:22:05.309Z,90.76
2023-03-03T03:23:01.872Z,90.06
2023-03-03T03:23:58.637Z,88.91
2023-03-03T03:24:55.366Z,88.91
2023-03-03T03:25:52.108Z,89.41
2023-03-03T03:26:48.808Z,89.63
2023-03-03T03:27:45.468Z,90.18
2023-03-03T03:28:42.084Z,90.61
2023-03-03T03:29:38.818Z,90.69
2023-03-03T03:30:36.105Z,90.60
2023-03-03T03:31:32.766Z,90.37
2023-03-03T03:32:29.442Z,90.29
2023-03-03T03:33:28.266Z,90.36
2023-03-03T03:34:24.938Z,90.94
2023-03-03T03:35:21.569Z,91.11
2023-03-03T03:36:18.147Z,91.26
2023-03-03T03:37:14.833Z,91.19
2023-03-03T03:38:12.442Z,91.36
2023-03-03T03:39:09.264Z,91.30
2023-03-03T03:40:06.523Z,91.57
2023-03-03T03:41:04.560Z,90.69
2023-03-03T03:42:01.138Z,89.73
2023-03-03T03:42:57.707Z,89.06
2023-03-03T03:43:54.330Z,89.33
2023-03-03T03:44:51.673Z,89.27
2023-03-03T03:45:49.039Z,89.76
2023-03-03T03:46:45.779Z,90.02
2023-03-03T03:47:43.747Z,90.28
2023-03-03T03:48:40.506Z,89.97
2023-03-03T03:49:37.153Z,90.23
2023-03-03T03:50:33.885Z,90.55
2023-03-03T03:51:31.303Z,90.32
2023-03-03T03:52:27.882Z,90.60
2023-03-03T03:53:24.485Z,89.93
2023-03-03T03:54:21.145Z,89.66
2023-03-03T03:55:17.829Z,89.57
2023-03-03T03:56:14.524Z,89.67
2023-03-03T03:57:11.224Z,89.57
2023-03-03T03:58:07.847Z,89.22
2023-03-03T03:59:07.036Z,88.65
2023-03-03T04:00:05.754Z,89.09
2023-03-03T04:01:07.344Z,89.55
2023-03-03T04:02:04.075Z,89.56
2023-03-03T04:03:00.851Z,88.83
2023-03-03T04:03:57.681Z,89.32
2023-03-03T04:04:54.315Z,89.42
2023-03-03T04:05:53.346Z,89.64
2023-03-03T04:06:49.892Z,89.91
2023-03-03T04:07:46.459Z,90.04
2023-03-03T04:08:43.387Z,88.89
2023-03-03T04:09:39.996Z,88.31
2023-03-03T04:10:37.076Z,88.95
2023-03-03T04:11:33.668Z,88.67
2023-03-03T04:12:30.262Z,88.10
2023-03-03T04:13:29.004Z,88.18
2023-03-03T04:14:25.621Z,88.39
2023-03-03T04:15:22.234Z,87.80
2023-03-03T04:16:18.786Z,87.99
2023-03-03T04:17:22.833Z,87.59
2023-03-03T04:18:19.478Z,88.44
2023-03-03T04:19:16.154Z,88.97
2023-03-03T04:20:16.456Z,89.51
2023-03-03T04:21:14.896Z,89.70
2023-03-03T04:22:13.681Z,89.02
2023-03-03T04:23:10.785Z,88.84
2023-03-03T04:24:07.814Z,88.60
2023-03-03T04:25:06.238Z,89.04
2023-03-03T04:26:02.802Z,88.32
2023-03-03T04:26:59.406Z,88.49
2023-03-03T04:27:55.967Z,88.73
2023-03-03T04:28:52.583Z,88.75
2023-03-03T04:29:49.279Z,88.97
2023-03-03T04:30:45.983Z,89.65
2023-03-03T04:31:42.615Z,89.86
2023-03-03T04:32:39.214Z,89.85
2023-03-03T04:33:36.208Z,89.23
2023-03-03T04:34:32.959Z,88.94
2023-03-03T04:35:29.524Z,88.72
2023-03-03T04:36:26.225Z,88.71
2023-03-03T04:37:22.919Z,89.02
2023-03-03T04:38:19.582Z,88.62
2023-03-03T04:39:16.166Z,88.72
2023-03-03T04:40:12.856Z,89.17
2023-03-03T04:41:12.420Z,89.32
2023-03-03T04:42:09.010Z,89.59
2023-03-03T04:43:05.661Z,90.14
2023-03-03T04:44:02.241Z,89.83
2023-03-03T04:44:58.895Z,89.43
2023-03-03T04:45:55.553Z,89.47
2023-03-03T04:46:52.186Z,89.42
2023-03-03T04:47:48.869Z,89.74
2023-03-03T04:48:45.509Z,89.33
2023-03-03T04:49:42.877Z,89.86
2023-03-03T04:50:39.545Z,90.11
2023-03-03T04:51:36.227Z,90.55
2023-03-03T04:52:32.897Z,90.99
2023-03-03T04:53:29.484Z,91.64
2023-03-03T04:54:26.169Z,91.46
2023-03-03T04:55:22.761Z,92.00
2023-03-03T04:56:19.359Z,91.63
2023-03-03T04:57:15.925Z,92.02
2023-03-03T04:58:12.749Z,92.37
2023-03-03T04:59:09.534Z,92.76
2023-03-03T05:00:07.008Z,92.92
2023-03-03T05:01:03.623Z,93.25
2023-03-03T05:02:00.229Z,93.59
2023-03-03T05:02:56.903Z,93.55
2023-03-03T05:03:53.474Z,94.04
2023-03-03T05:04:50.051Z,93.89
2023-03-03T05:05:48.215Z,94.16
2023-03-03T05:06:44.793Z,94.24
2023-03-03T05:07:41.391Z,93.83
2023-03-03T05:08:38.078Z,93.75
2023-03-03T05:09:34.694Z,93.93
2023-03-03T05:10:31.266Z,93.64
2023-03-03T05:11:27.851Z,93.50
2023-03-03T05:12:24.704Z,93.69
2023-03-03T05:13:21.495Z,93.81
2023-03-03T05:14:18.100Z,93.38
2023-03-03T05:15:14.688Z,93.18
2023-03-03T05:16:11.595Z,93.19
2023-03-03T05:17:08.673Z,93.18
2023-03-03T05:18:05.475Z,93.33
2023-03-03T05:19:02.001Z,93.67
2023-03-03T05:20:01.828Z,94.24
2023-03-03T05:20:58.418Z,94.52
2023-03-03T05:21:55.433Z,94.27
2023-03-03T05:22:52.172Z,93.93
2023-03-03T05:23:48.747Z,93.22
2023-03-03T05:24:49.092Z,92.69
2023-03-03T05:25:48.350Z,92.48
2023-03-03T05:26:44.941Z,92.09
2023-03-03T05:27:41.607Z,91.52
2023-03-03T05:28:38.231Z,91.67
2023-03-03T05:29:34.971Z,92.04
2023-03-03T05:30:31.610Z,92.61
2023-03-03T05:31:28.213Z,92.73
2023-03-03T05:32:24.869Z,92.47
2023-03-03T05:33:21.422Z,92.19
2023-03-03T05:34:18.025Z,91.58
2023-03-03T05:35:14.598Z,91.33
2023-03-03T05:36:11.138Z,91.54
2023-03-03T05:37:07.787Z,92.24
2023-03-03T05:38:05.455Z,91.94
2023-03-03T05:39:02.361Z,92.40
2023-03-03T05:39:59.030Z,91.83
2023-03-03T05:40:55.604Z,91.58
2023-03-03T05:41:52.167Z,91.61
2023-03-03T05:42:48.787Z,91.62
2023-03-03T05:43:45.523Z,91.84
2023-03-03T05:44:42.111Z,92.01
2023-03-03T05:45:38.849Z,92.39
2023-03-03T05:46:35.772Z,92.47
2023-03-03T05:47:32.425Z,93.16
2023-03-03T05:48:29.250Z,93.27
2023-03-03T05:49:26.476Z,93.30
2023-03-03T05:50:23.815Z,93.25
2023-03-03T05:51:20.396Z,93.46
2023-03-03T05:52:16.969Z,93.99
2023-03-03T05:53:13.600Z,93.50
2023-03-03T05:54:10.260Z,92.76
2023-03-03T05:55:07.289Z,92.67
2023-03-03T05:56:04.143Z,92.56
2023-03-03T05:57:00.906Z,92.78
2023-03-03T05:57:57.603Z,92.80
2023-03-03T05:58:54.167Z,92.60
2023-03-03T05:59:50.784Z,92.55
2023-03-03T06:00:47.667Z,92.62
2023-03-03T06:01:44.283Z,93.04
2023-03-03T06:02:42.307Z,92.60
2023-03-03T06:03:39.177Z,92.60
2023-03-03T06:04:35.778Z,92.82
2023-03-03T06:05:32.454Z,93.03
2023-03-03T06:06:29.202Z,92.75
2023-03-03T06:07:25.775Z,92.35
2023-03-03T06:08:22.460Z,91.72
2023-03-03T06:09:19.253Z,91.98
2023-03-03T06:10:16.210Z,92.22
2023-03-03T06:11:13.713Z,92.19
2023-03-03T06:12:10.372Z,91.75
2023-03-03T06:13:06.980Z,91.87
2023-03-03T06:14:03.549Z,92.30
2023-03-03T06:15:00.176Z,92.14
2023-03-03T06:15:56.746Z,92.43
2023-03-03T06:16:53.388Z,92.34
2023-03-03T06:17:50.102Z,91.97
2023-03-03T06:18:46.747Z,91.98
2023-03-03T06:19:43.362Z,91.02
2023-03-03T06:20:40.065Z,90.92
2023-03-03T06:21:36.606Z,90.80
2023-03-03T06:22:33.211Z,91.06
2023-03-03T06:23:30.077Z,91.05
2023-03-03T06:24:30.248Z,91.50
2023-03-03T06:25:27.329Z,91.37
2023-03-03T06:26:23.906Z,90.78
2023-03-03T06:27:20.479Z,90.66
2023-03-03T06:28:18.237Z,90.42
2023-03-03T06:29:15.861Z,90.80
2023-03-03T06:30:13.060Z,91.55
2023-03-03T06:31:09.713Z,91.15
2023-03-03T06:32:06.434Z,91.06
2023-03-03T06:33:03.173Z,91.03
2023-03-03T06:33:59.768Z,91.11
2023-03-03T06:34:56.392Z,91.37
2023-03-03T06:35:54.432Z,91.49
2023-03-03T06:36:52.303Z,91.75
2023-03-03T06:37:50.935Z,91.50
2023-03-03T06:38:47.716Z,90.86
2023-03-03T06:39:44.564Z,90.84
2023-03-03T06:40:41.162Z,91.52
2023-03-03T06:41:38.473Z,91.48
2023-03-03T06:42:35.093Z,90.56
2023-03-03T06:43:31.690Z,89.83
2023-03-03T06:44:28.941Z,90.33
2023-03-03T06:45:25.806Z,90.88
2023-03-03T06:46:22.875Z,91.04
2023-03-03T06:47:19.522Z,90.14
2023-03-03T06:48:16.081Z,90.16
2023-03-03T06:49:12.676Z,90.42
2023-03-03T06:50:12.083Z,91.28
2023-03-03T06:51:22.657Z,92.37
2023-03-03T06:52:24.593Z,92.00
2023-03-03T06:53:21.221Z,91.47
2023-03-03T06:54:21.057Z,91.13
2023-03-03T06:55:23.629Z,90.17
2023-03-03T06:56:20.217Z,90.87
2023-03-03T06:57:34.313Z,91.15
2023-03-03T06:58:31.350Z,91.53
2023-03-03T06:59:28.896Z,91.35
2023-03-03T07:00:30.694Z,91.04
2023-03-03T07:01:30.742Z,91.05
2023-03-03T07:02:27.460Z,90.64
2023-03-03T07:03:28.328Z,89.49
2023-03-03T07:04:33.567Z,90.06
2023-03-03T07:05:30.367Z,90.67
2023-03-03T07:06:28.343Z,91.08
2023-03-03T07:07:26.620Z,91.25
2023-03-03T07:08:24.712Z,91.47
2023-03-03T07:09:25.412Z,91.52
2023-03-03T07:10:28.148Z,90.60
2023-03-03T07:11:24.849Z,90.63
2023-03-03T07:12:22.910Z,91.05
2023-03-03T07:13:28.193Z,91.48
2023-03-03T07:14:24.793Z,91.34
2023-03-03T07:15:35.003Z,91.67
2023-03-03T07:16:31.715Z,91.24
2023-03-03T07:17:28.407Z,91.46
2023-03-03T07:18:35.280Z,91.18
2023-03-03T07:19:35.238Z,90.71
2023-03-03T07:20:38.664Z,91.21
2023-03-03T07:21:36.997Z,91.40
2023-03-03T07:22:33.748Z,91.28
2023-03-03T07:23:42.872Z,91.09
2023-03-03T07:24:39.958Z,91.25
2023-03-03T07:25:36.820Z,91.44
2023-03-03T07:26:33.619Z,91.16
2023-03-03T07:27:32.113Z,91.21
2023-03-03T07:28:33.020Z,90.70
2023-03-03T07:29:33.415Z,90.16
2023-03-03T07:30:30.252Z,89.97
2023-03-03T07:31:36.720Z,89.16
2023-03-03T07:32:45.062Z,88.71
2023-03-03T07:33:45.806Z,89.74
2023-03-03T07:34:47.883Z,89.04
2023-03-03T07:35:45.336Z,89.19
2023-03-03T07:36:42.007Z,90.03
2023-03-03T07:37:41.440Z,89.83
2023-03-03T07:38:45.558Z,89.75
2023-03-03T07:39:45.504Z,89.38
2023-03-03T07:40:49.634Z,89.36
2023-03-03T07:41:46.325Z,89.95
2023-03-03T07:42:44.384Z,89.40
2023-03-03T07:43:55.070Z,87.13
2023-03-03T07:44:54.091Z,85.64
2023-03-03T07:45:51.254Z,85.56
2023-03-03T07:46:49.379Z,86.29
2023-03-03T07:47:46.015Z,87.11
2023-03-03T07:48:46.267Z,86.98
2023-03-03T07:49:43.347Z,86.09
2023-03-03T07:50:41.032Z,86.70
2023-03-03T07:51:42.189Z,86.80
2023-03-03T07:52:42.045Z,86.29
2023-03-03T07:53:38.747Z,85.59
2023-03-03T07:54:36.236Z,86.24
2023-03-03T07:55:40.180Z,86.92
2023-03-03T07:56:36.867Z,87.42
2023-03-03T07:57:39.897Z,88.16
2023-03-03T07:58:39.425Z,88.34
2023-03-03T07:59:37.708Z,87.74
2023-03-03T08:01:16.380Z,88.20
2023-03-03T08:02:55.472Z,89.16
2023-03-03T08:03:52.664Z,89.04
2023-03-03T08:04:52.530Z,88.83
2023-03-03T08:05:50.822Z,88.33
2023-03-03T08:06:53.358Z,87.90
2023-03-03T08:07:50.789Z,87.54
2023-03-03T08:08:47.417Z,87.78
2023-03-03T08:09:51.165Z,87.43
2023-03-03T08:10:55.725Z,87.70
2023-03-03T08:11:57.532Z,87.59
2023-03-03T08:12:55.642Z,87.53
2023-03-03T08:13:52.234Z,86.91
2023-03-03T08:14:52.600Z,87.52
2023-03-03T08:15:52.607Z,88.16
2023-03-03T08:16:49.295Z,88.56
2023-03-03T08:17:46.922Z,87.14
2023-03-03T08:18:47.789Z,87.49
2023-03-03T08:19:44.399Z,87.11
2023-03-03T08:20:49.296Z,86.43
2023-03-03T08:21:46.526Z,86.78
2023-03-03T08:22:43.614Z,86.42
2023-03-03T08:23:41.115Z,87.08
2023-03-03T08:24:38.627Z,86.45
2023-03-03T08:25:35.374Z,86.47
2023-03-03T08:26:32.468Z,86.48
2023-03-03T08:27:29.045Z,85.80
2023-03-03T08:28:25.731Z,86.53
2023-03-03T08:29:22.389Z,86.57
2023-03-03T08:30:19.089Z,87.03
2023-03-03T08:31:30.902Z,87.72
2023-03-03T08:32:31.367Z,87.49
2023-03-03T08:33:28.441Z,86.59
2023-03-03T08:34:25.060Z,86.37
2023-03-03T08:35:21.846Z,86.89
2023-03-03T08:36:19.269Z,88.19
2023-03-03T08:37:15.858Z,87.75
2023-03-03T08:38:17.839Z,87.93
2023-03-03T08:39:14.431Z,88.33
2023-03-03T08:40:11.536Z,87.21
2023-03-03T08:41:08.400Z,87.33
2023-03-03T08:42:05.010Z,86.81
2023-03-03T08:43:01.828Z,85.95
2023-03-03T08:43:58.642Z,84.66
2023-03-03T08:44:55.260Z,85.47
2023-03-03T08:45:53.805Z,86.79
2023-03-03T08:46:50.441Z,87.23
2023-03-03T08:47:47.056Z,86.14
2023-03-03T08:48:43.645Z,86.33
2023-03-03T08:49:40.211Z,86.74
2023-03-03T08:50:38.467Z,86.76
2023-03-03T08:51:35.202Z,86.75
2023-03-03T08:52:31.774Z,86.51
2023-03-03T08:53:29.227Z,86.21
2023-03-03T08:54:25.828Z,85.56
2023-03-03T08:55:22.848Z,84.03
2023-03-03T08:56:19.478Z,85.27
2023-03-03T08:57:17.074Z,86.13
2023-03-03T08:58:17.151Z,86.07
2023-03-03T08:59:13.789Z,85.90
2023-03-03T09:00:14.280Z,85.24
2023-03-03T09:01:10.933Z,84.59
2023-03-03T09:02:08.487Z,83.62
2023-03-03T09:03:08.595Z,84.59
2023-03-03T09:04:05.357Z,83.94
2023-03-03T09:05:02.024Z,83.04
2023-03-03T09:05:58.626Z,83.14
2023-03-03T09:06:55.265Z,83.47
2023-03-03T09:07:52.557Z,82.28
2023-03-03T09:08:49.469Z,81.84
2023-03-03T09:09:46.103Z,82.76
2023-03-03T09:10:42.722Z,83.73
2023-03-03T09:11:43.621Z,84.48
2023-03-03T09:12:43.297Z,84.55
2023-03-03T09:13:40.292Z,84.28
2023-03-03T09:14:36.882Z,83.79
2023-03-03T09:15:36.153Z,83.01
2023-03-03T09:16:39.257Z,82.93
2023-03-03T09:17:37.856Z,83.81
2023-03-03T09:18:39.044Z,84.36
2023-03-03T09:19:37.578Z,83.38
2023-03-03T09:20:42.565Z,82.11
2023-03-03T09:21:41.079Z,80.77
2023-03-03T09:22:38.281Z,81.22
2023-03-03T09:23:39.969Z,83.15
2023-03-03T09:24:37.218Z,83.47
2023-03-03T09:25:36.715Z,83.90
2023-03-03T09:26:39.405Z,82.29
2023-03-03T09:27:37.262Z,82.72
2023-03-03T09:28:34.274Z,83.13
2023-03-03T09:29:37.343Z,83.53
2023-03-03T09:30:46.025Z,83.45
2023-03-03T09:31:44.155Z,83.54
2023-03-03T09:32:43.205Z,84.29
2023-03-03T09:33:47.090Z,84.39
2023-03-03T09:34:43.824Z,84.02
2023-03-03T09:35:41.897Z,84.20
2023-03-03T09:36:38.892Z,84.35
2023-03-03T09:37:40.555Z,84.21
2023-03-03T09:38:41.946Z,83.73
2023-03-03T09:39:38.580Z,82.67
2023-03-03T09:41:10.742Z,81.08
2023-03-03T09:42:25.207Z,81.27
2023-03-03T09:43:54.797Z,80.19
2023-03-03T09:45:22.886Z,78.71
2023-03-03T09:46:33.924Z,78.97
2023-03-03T09:48:12.360Z,78.11
2023-03-03T09:49:11.702Z,80.00
2023-03-03T09:50:12.978Z,79.22
2023-03-03T09:51:30.566Z,77.47
2023-03-03T09:53:04.027Z,78.72
2023-03-03T09:54:24.358Z,78.09
2023-03-03T09:55:50.459Z,77.50
2023-03-03T09:57:08.110Z,78.62
2023-03-03T09:58:55.128Z,78.26
2023-03-03T10:00:13.408Z,78.73
2023-03-03T10:01:25.073Z,78.66
2023-03-03T10:02:59.204Z,76.57
2023-03-03T10:04:05.221Z,77.11
2023-03-03T10:05:15.247Z,77.32
2023-03-03T10:06:25.441Z,77.05
2023-03-03T10:07:45.155Z,76.08
2023-03-03T10:09:09.457Z,73.25
2023-03-03T10:10:38.898Z,74.48
2023-03-03T10:11:49.997Z,73.58
2023-03-03T10:12:53.736Z,72.86
2023-03-03T10:14:10.403Z,72.88
2023-03-03T10:15:28.081Z,73.75
2023-03-03T10:16:39.753Z,75.16
2023-03-03T10:17:53.252Z,75.56
2023-03-03T10:19:02.535Z,75.66
2023-03-03T10:20:14.999Z,75.21
2023-03-03T10:21:22.558Z,75.08
2023-03-03T10:22:35.048Z,76.60
2023-03-03T10:24:09.382Z,76.19
2023-03-03T10:25:17.776Z,74.90
2023-03-03T10:26:44.811Z,76.07
2023-03-03T10:27:59.068Z,76.06
2023-03-03T10:29:22.155Z,76.02
2023-03-03T10:30:48.569Z,76.00
2023-03-03T10:32:32.966Z,75.60
2023-03-03T10:34:19.621Z,76.56
2023-03-03T10:35:32.195Z,77.22
2023-03-03T10:36:51.918Z,76.45
2023-03-03T10:38:03.480Z,76.92
2023-03-03T10:39:18.018Z,77.80
2023-03-03T10:40:25.134Z,76.42
2023-03-03T10:41:33.970Z,78.51
2023-03-03T10:42:51.578Z,78.51
2023-03-03T10:44:06.241Z,79.48
2023-03-03T10:45:31.031Z,79.44
2023-03-03T10:46:36.721Z,79.95
2023-03-03T10:47:53.959Z,77.99
2023-03-03T10:49:17.143Z,76.45
2023-03-03T10:50:17.211Z,75.98
2023-03-03T10:51:16.721Z,75.95
2023-03-03T10:52:35.133Z,75.58
2023-03-03T10:53:41.530Z,76.39
2023-03-03T10:54:44.102Z,77.82
2023-03-03T10:55:50.158Z,79.15
2023-03-03T10:57:02.630Z,78.89
2023-03-03T10:58:32.987Z,79.02
2023-03-03T11:00:01.028Z,79.70
2023-03-03T11:01:18.111Z,78.37
2023-03-03T11:02:40.161Z,77.83
2023-03-03T11:04:04.180Z,76.26
2023-03-03T11:05:15.468Z,75.80
2023-03-03T11:06:47.265Z,74.31
2023-03-03T11:08:09.458Z,75.69
2023-03-03T11:09:24.547Z,77.70
2023-03-03T11:10:27.032Z,77.42
2023-03-03T11:11:23.465Z,78.68
2023-03-03T11:12:57.601Z,78.82
2023-03-03T11:13:54.139Z,77.17
2023-03-03T11:15:08.899Z,77.15
2023-03-03T11:16:20.265Z,77.70
2023-03-03T11:17:23.730Z,76.43
2023-03-03T11:18:32.254Z,76.87
2023-03-03T11:19:41.240Z,77.72
2023-03-03T11:20:44.063Z,77.94
2023-03-03T11:21:55.505Z,78.63
2023-03-03T11:23:08.698Z,77.46
2023-03-03T11:24:08.411Z,75.52
2023-03-03T11:25:24.184Z,75.99
2023-03-03T11:26:58.086Z,77.15
2023-03-03T11:28:12.969Z,78.71
2023-03-03T11:29:28.335Z,79.17
2023-03-03T11:30:34.390Z,79.27
2023-03-03T11:31:49.006Z,78.76
2023-03-03T11:33:18.066Z,78.46
2023-03-03T11:34:48.624Z,76.99
2023-03-03T11:36:10.868Z,75.75
2023-03-03T11:37:12.132Z,77.37
2023-03-03T11:38:18.632Z,78.22
2023-03-03T11:39:22.485Z,77.14
2023-03-03T11:40:27.995Z,77.79
2023-03-03T11:41:58.663Z,79.35
2023-03-03T11:43:01.510Z,79.83
2023-03-03T11:44:23.903Z,80.11
2023-03-03T11:45:31.353Z,79.82
2023-03-03T11:46:42.277Z,79.62
2023-03-03T11:47:52.643Z,80.03
2023-03-03T11:49:09.443Z,80.26
2023-03-03T11:50:06.105Z,80.74
2023-03-03T11:51:11.143Z,80.18
2023-03-03T11:52:22.894Z,79.96
2023-03-03T11:53:50.487Z,80.22
2023-03-03T11:55:11.918Z,80.79
2023-03-03T11:56:40.004Z,81.21
2023-03-03T11:58:08.303Z,82.08
2023-03-03T11:59:13.880Z,79.96
2023-03-03T12:00:19.306Z,79.81
2023-03-03T12:01:43.391Z,79.62
2023-03-03T12:02:58.828Z,78.52
2023-03-03T12:04:03.167Z,79.74
2023-03-03T12:05:16.342Z,80.12
2023-03-03T12:06:21.636Z,80.43
2023-03-03T12:07:41.846Z,80.08
2023-03-03T12:09:02.394Z,80.93
2023-03-03T12:10:01.641Z,81.13
2023-03-03T12:11:07.220Z,80.38
2023-03-03T12:12:14.484Z,81.03
2023-03-03T12:13:33.803Z,79.80
2023-03-03T12:14:52.004Z,80.34
2023-03-03T12:15:53.493Z,78.87
2023-03-03T12:17:18.746Z,79.28
2023-03-03T12:18:15.252Z,78.41
2023-03-03T12:19:21.049Z,79.08
2023-03-03T12:20:40.102Z,78.36
2023-03-03T12:22:13.949Z,78.53
2023-03-03T12:23:13.249Z,78.77
2023-03-03T12:24:28.401Z,79.94
2023-03-03T12:25:42.631Z,81.79
2023-03-03T12:27:07.318Z,81.86
2023-03-03T12:28:11.963Z,83.31
2023-03-03T12:29:51.190Z,83.89
2023-03-03T12:31:09.693Z,85.52
2023-03-03T12:32:09.131Z,85.36
2023-03-03T12:33:17.419Z,85.47
2023-03-03T12:34:38.338Z,85.40
2023-03-03T12:36:02.593Z,85.14
2023-03-03T12:37:13.549Z,85.32
2023-03-03T12:38:19.572Z,86.11
2023-03-03T12:39:43.810Z,86.98
2023-03-03T12:40:55.995Z,86.97
2023-03-03T12:42:13.542Z,87.31
2023-03-03T12:43:40.556Z,88.04
2023-03-03T12:44:49.149Z,88.81
2023-03-03T12:45:56.233Z,89.33
2023-03-03T12:47:23.155Z,88.98
2023-03-03T12:48:36.632Z,88.38
2023-03-03T12:50:06.473Z,87.83
2023-03-03T12:51:25.586Z,87.24
2023-03-03T12:52:31.304Z,88.06
2023-03-03T12:53:30.962Z,88.62
2023-03-03T12:54:39.372Z,89.11
2023-03-03T12:55:54.667Z,89.42
2023-03-03T12:57:01.148Z,88.70
2023-03-03T12:58:37.631Z,88.76
2023-03-03T12:59:49.553Z,88.88
2023-03-03T13:01:28.496Z,88.41
2023-03-03T13:02:30.953Z,89.99
2023-03-03T13:03:46.245Z,88.82
2023-03-03T13:05:05.413Z,88.67
2023-03-03T13:06:17.218Z,88.11
2023-03-03T13:07:36.538Z,86.30
2023-03-03T13:08:45.346Z,86.78
2023-03-03T13:10:03.803Z,88.18
2023-03-03T13:11:18.817Z,87.87
2023-03-03T13:12:24.562Z,87.74
2023-03-03T13:14:02.886Z,86.89
2023-03-03T13:15:26.870Z,87.67
2023-03-03T13:16:41.747Z,87.58
2023-03-03T13:18:02.775Z,87.20
2023-03-03T13:19:11.809Z,87.97
2023-03-03T13:20:31.145Z,88.60
2023-03-03T13:21:53.846Z,88.97
2023-03-03T13:23:31.912Z,88.23
2023-03-03T13:24:43.209Z,87.82
2023-03-03T13:26:01.733Z,88.61